Date,TemperatureHighF,TemperatureAvgF,TemperatureLowF,DewpointHighF,DewpointAvgF,DewpointLowF,HumidityHigh,HumidityAvg,HumidityLow,PressureMaxIn,PressureMinIn,WindSpeedMaxMPH,WindSpeedAvgMPH,GustSpeedMaxMPH,PrecipitationSumIn
2013-11-1,72.2,54.2,39.8,48.3,43.2,36.8,91,69,40,30.14,30.00,7,0,7,0.00
2013-11-2,73.5,55.1,41.4,51.0,44.5,38.1,90,71,38,30.02,29.87,7,0,7,0.00
2013-11-3,63.2,49.5,36.5,44.3,35.6,28.7,94,64,28,30.03,29.91,9,0,9,0.01
2013-11-4,67.2,50.5,33.2,42.1,32.1,27.4,96,55,23,30.04,29.91,16,0,16,0.00
2013-11-5,69.4,55.1,41.1,38.7,35.0,31.1,74,49,30,30.21,30.04,11,0,11,0.00
2013-11-6,68.9,53.5,40.3,43.2,39.0,35.0,83,60,35,30.25,30.15,7,0,7,0.00
2013-11-7,74.8,56.6,44.4,44.5,40.4,37.4,79,58,28,30.16,30.04,4,0,4,0.00
2013-11-8,75.1,56.2,41.2,49.7,44.6,38.6,92,68,38,30.07,29.93,6,0,6,0.00
2013-11-9,70.0,53.6,39.9,48.8,43.8,37.2,92,72,44,30.01,29.94,7,0,7,0.00
2013-11-10,69.0,52.0,40.0,50.8,44.3,37.6,93,77,37,30.09,30.01,6,0,6,0.00
2013-11-11,65.3,53.0,40.1,50.3,45.9,38.0,95,78,53,30.15,30.06,8,0,8,0.00
2013-11-12,61.8,54.0,52.3,50.4,48.0,47.0,84,80,63,30.24,30.13,7,0,7,0.00
2013-11-13,77.1,60.9,49.3,52.1,47.1,44.1,84,63,33,30.10,30.07,4,0,4,0.00
2013-11-14,72.1,54.1,45.0,54.0,47.3,41.9,94,80,49,30.09,29.84,9,0,9,0.00
2013-11-15,64.4,50.7,38.1,46.0,38.7,34.7,89,66,35,29.86,29.70,9,0,9,0.00
2013-11-16,62.4,52.2,44.8,48.5,44.0,39.9,92,75,46,29.92,29.75,11,1,11,0.00
2013-11-17,61.9,52.4,43.2,47.4,45.4,40.5,91,78,53,30.07,29.91,9,0,9,0.00
2013-11-18,59.5,48.9,38.9,48.2,43.2,37.0,95,82,55,30.13,30.06,11,0,11,0.01
2013-11-19,60.8,53.9,48.2,53.6,49.8,44.8,95,86,70,30.09,29.94,6,0,6,0.38
2013-11-20,58.5,54.7,49.7,56.5,53.2,48.3,96,95,91,29.94,29.82,7,0,7,0.42
2013-11-21,59.9,53.0,45.7,50.7,40.0,25.1,96,68,28,29.95,29.87,21,1,21,0.07